createdAt,value
2022-12-29T00:00:11.794Z,1.70
2022-12-29T00:02:41.219Z,1.52
2022-12-29T00:05:08.861Z,1.52
2022-12-29T00:07:36.678Z,1.70
2022-12-29T00:10:06.068Z,1.45
2022-12-29T00:12:53.235Z,1.50
2022-12-29T00:15:38.957Z,1.30
2022-12-29T00:18:06.730Z,1.15
2022-12-29T00:20:57.119Z,1.13
2022-12-29T00:23:43.111Z,1.50
2022-12-29T00:26:36.958Z,1.30
2022-12-29T00:29:23.551Z,1.42
2022-12-29T00:32:09.520Z,1.58
2022-12-29T00:34:59.891Z,1.27
2022-12-29T00:37:47.967Z,1.23
2022-12-29T00:40:34.543Z,1.15
2022-12-29T00:43:20.294Z,0.85
2022-12-29T00:45:47.574Z,1.20
2022-12-29T00:48:14.864Z,1.70
2022-12-29T00:50:42.274Z,1.30
2022-12-29T00:53:09.817Z,2.10
2022-12-29T00:55:39.943Z,1.80
2022-12-29T00:58:07.165Z,1.88
2022-12-29T01:00:34.486Z,1.80
2022-12-29T01:03:01.913Z,1.88
2022-12-29T01:05:29.182Z,1.75
2022-12-29T01:07:56.842Z,1.60
2022-12-29T01:10:24.185Z,1.27
2022-12-29T01:12:51.865Z,1.73
2022-12-29T01:15:19.265Z,1.30
2022-12-29T01:17:46.400Z,1.83
2022-12-29T01:20:13.608Z,0.95
2022-12-29T01:22:43.419Z,1.55
2022-12-29T01:25:10.828Z,1.45
2022-12-29T01:27:38.240Z,1.45
2022-12-29T01:30:05.873Z,1.00
2022-12-29T01:32:33.267Z,1.10
2022-12-29T01:35:00.566Z,1.10
2022-12-29T01:37:28.005Z,1.23
2022-12-29T01:39:55.078Z,1.00
2022-12-29T01:42:24.937Z,0.90
2022-12-29T01:44:56.881Z,0.88
2022-12-29T01:47:27.267Z,0.90
2022-12-29T01:49:59.648Z,1.03
2022-12-29T01:52:28.626Z,0.60
2022-12-29T01:54:57.154Z,0.80
2022-12-29T01:57:29.640Z,1.00
2022-12-29T02:00:00.217Z,1.00
2022-12-29T02:02:30.272Z,0.75
2022-12-29T02:05:04.419Z,0.90
2022-12-29T02:07:33.092Z,0.65
2022-12-29T02:10:02.068Z,0.73
2022-12-29T02:12:29.254Z,0.50
2022-12-29T02:15:00.345Z,0.70
2022-12-29T02:17:55.166Z,0.60
2022-12-29T02:20:31.282Z,0.57
2022-12-29T02:23:04.219Z,0.60
2022-12-29T02:25:31.482Z,0.52
2022-12-29T02:28:10.773Z,0.70
2022-12-29T02:30:56.585Z,0.80
2022-12-29T02:33:41.997Z,0.95
2022-12-29T02:36:15.634Z,1.00
2022-12-29T02:38:50.549Z,0.90
2022-12-29T02:41:29.483Z,0.70
2022-12-29T02:43:56.700Z,0.80
2022-12-29T02:46:30.198Z,0.50
2022-12-29T02:49:07.812Z,1.20
2022-12-29T02:51:42.078Z,0.60
2022-12-29T02:54:28.311Z,0.95
2022-12-29T02:56:55.609Z,0.82
2022-12-29T02:59:23.819Z,0.70
2022-12-29T03:02:12.890Z,0.70
2022-12-29T03:04:42.916Z,0.85
2022-12-29T03:07:24.682Z,0.68
2022-12-29T03:09:57.481Z,0.93
2022-12-29T03:12:24.830Z,0.82
2022-12-29T03:15:16.721Z,0.88
2022-12-29T03:17:59.871Z,1.00
2022-12-29T03:20:33.147Z,0.88
2022-12-29T03:23:01.875Z,1.10
2022-12-29T03:25:34.135Z,1.02
2022-12-29T03:28:03.657Z,1.27
2022-12-29T03:30:32.493Z,1.23
2022-12-29T03:33:01.827Z,0.60
2022-12-29T03:35:30.729Z,1.20
2022-12-29T03:38:03.260Z,0.93
2022-12-29T03:40:31.219Z,0.75
2022-12-29T03:43:00.006Z,0.75
2022-12-29T03:45:27.405Z,1.10
2022-12-29T03:47:55.194Z,1.00
2022-12-29T03:50:24.310Z,1.42
2022-12-29T03:52:51.712Z,1.00
2022-12-29T03:55:18.829Z,1.05
2022-12-29T03:57:46.239Z,2.28
2022-12-29T04:00:14.379Z,1.52
2022-12-29T04:02:41.935Z,1.20
2022-12-29T04:05:09.478Z,1.20
2022-12-29T04:07:43.002Z,1.40
2022-12-29T04:10:10.304Z,1.02
2022-12-29T04:12:39.544Z,1.20
2022-12-29T04:15:06.944Z,1.83
2022-12-29T04:17:34.848Z,1.50
2022-12-29T04:20:20.979Z,1.13
2022-12-29T04:22:48.408Z,1.15
2022-12-29T04:25:15.658Z,1.25
2022-12-29T04:27:43.043Z,1.00
2022-12-29T04:30:10.829Z,1.60
2022-12-29T04:32:39.169Z,1.58
2022-12-29T04:35:06.741Z,0.98
2022-12-29T04:37:36.138Z,1.27
2022-12-29T04:40:04.508Z,2.00
2022-12-29T04:42:31.768Z,1.60
2022-12-29T04:44:58.871Z,0.98
2022-12-29T04:47:31.995Z,1.27
2022-12-29T04:49:59.170Z,1.20
2022-12-29T04:52:26.436Z,1.10
2022-12-29T04:54:53.730Z,1.38
2022-12-29T04:57:27.297Z,1.13
2022-12-29T04:59:54.435Z,1.42
2022-12-29T05:02:21.931Z,1.58
2022-12-29T05:04:49.140Z,1.02
2022-12-29T05:07:16.783Z,0.95
2022-12-29T05:09:43.921Z,1.85
2022-12-29T05:12:11.122Z,1.23
2022-12-29T05:14:38.211Z,1.13
2022-12-29T05:17:05.672Z,1.50
2022-12-29T05:19:32.918Z,0.90
2022-12-29T05:22:00.917Z,1.27
2022-12-29T05:24:28.234Z,1.35
2022-12-29T05:26:58.305Z,1.35
2022-12-29T05:29:25.716Z,1.20
2022-12-29T05:31:52.912Z,1.77
2022-12-29T05:34:20.310Z,1.70
2022-12-29T05:36:48.535Z,1.75
2022-12-29T05:39:16.042Z,2.17
2022-12-29T05:41:43.254Z,1.52
2022-12-29T05:44:11.704Z,2.25
2022-12-29T05:46:39.234Z,1.92
2022-12-29T05:49:06.901Z,1.48
2022-12-29T05:51:34.296Z,2.13
2022-12-29T05:54:01.713Z,1.33
2022-12-29T05:56:29.029Z,1.77
2022-12-29T05:58:56.453Z,1.88
2022-12-29T06:01:23.789Z,1.50
2022-12-29T06:03:51.040Z,1.75
2022-12-29T06:06:18.555Z,1.73
2022-12-29T06:08:46.190Z,1.45
2022-12-29T06:11:13.606Z,2.30
2022-12-29T06:13:41.034Z,2.22
2022-12-29T06:16:10.328Z,1.88
2022-12-29T06:18:37.643Z,1.98
2022-12-29T06:21:06.360Z,1.85
2022-12-29T06:23:33.507Z,1.85
2022-12-29T06:26:01.801Z,1.63
2022-12-29T06:28:30.975Z,1.60
2022-12-29T06:31:00.279Z,1.02
2022-12-29T06:33:27.645Z,1.83
2022-12-29T06:35:54.971Z,2.00
2022-12-29T06:38:22.267Z,2.15
2022-12-29T06:40:49.711Z,1.67
2022-12-29T06:43:17.001Z,3.65
2022-12-29T06:45:44.979Z,1.65
2022-12-29T06:48:12.338Z,1.80
2022-12-29T06:50:39.709Z,1.75
2022-12-29T06:53:14.879Z,2.45
2022-12-29T06:55:43.314Z,2.53
2022-12-29T06:58:10.718Z,1.88
2022-12-29T07:00:38.105Z,2.63
2022-12-29T07:03:05.640Z,1.83
2022-12-29T07:05:33.732Z,1.60
2022-12-29T07:08:01.956Z,1.65
2022-12-29T07:10:29.544Z,2.05
2022-12-29T07:13:02.853Z,2.25
2022-12-29T07:15:30.151Z,2.13
2022-12-29T07:18:01.612Z,1.90
2022-12-29T07:20:29.086Z,2.05
2022-12-29T07:22:56.370Z,1.90
2022-12-29T07:25:23.856Z,1.88
2022-12-29T07:27:52.256Z,1.70
2022-12-29T07:30:20.713Z,2.03
2022-12-29T07:32:47.875Z,1.95
2022-12-29T07:35:15.046Z,1.50
2022-12-29T07:37:45.991Z,3.15
2022-12-29T07:40:13.955Z,2.08
2022-12-29T07:42:41.681Z,2.85
2022-12-29T07:45:10.981Z,1.90
2022-12-29T07:47:38.273Z,2.22
2022-12-29T07:50:06.354Z,1.73
2022-12-29T07:52:33.475Z,2.25
2022-12-29T07:55:02.672Z,2.20
2022-12-29T07:57:32.275Z,1.80
2022-12-29T08:00:00.185Z,1.88
2022-12-29T08:02:27.875Z,1.50
2022-12-29T08:04:55.086Z,1.45
2022-12-29T08:07:22.301Z,2.28
2022-12-29T08:09:49.435Z,2.08
2022-12-29T08:12:16.718Z,1.88
2022-12-29T08:14:43.874Z,2.15
2022-12-29T08:17:12.099Z,1.98
2022-12-29T08:19:39.379Z,2.17
2022-12-29T08:22:07.758Z,1.73
2022-12-29T08:24:34.862Z,3.35
2022-12-29T08:27:10.866Z,1.83
2022-12-29T08:29:43.155Z,1.35
2022-12-29T08:32:16.961Z,1.88
2022-12-29T08:34:44.181Z,1.40
2022-12-29T08:37:11.604Z,1.60
2022-12-29T08:39:38.793Z,1.42
2022-12-29T08:42:06.202Z,1.52
2022-12-29T08:44:34.453Z,1.95
2022-12-29T08:47:02.783Z,1.48
2022-12-29T08:49:30.125Z,2.15
2022-12-29T08:51:57.575Z,1.73
2022-12-29T08:54:30.733Z,1.95
2022-12-29T08:56:57.862Z,2.13
2022-12-29T08:59:27.688Z,1.80
2022-12-29T09:01:55.134Z,1.83
2022-12-29T09:04:24.682Z,1.50
2022-12-29T09:06:52.958Z,2.33
2022-12-29T09:09:20.814Z,2.45
2022-12-29T09:11:59.983Z,2.53
2022-12-29T09:14:27.244Z,1.95
2022-12-29T09:17:13.755Z,1.70
2022-12-29T09:19:40.884Z,1.25
2022-12-29T09:22:08.261Z,1.30
2022-12-29T09:24:35.510Z,2.10
2022-12-29T09:27:03.007Z,1.77
2022-12-29T09:29:30.105Z,1.98
2022-12-29T09:32:07.630Z,2.10
2022-12-29T09:34:36.426Z,2.53
2022-12-29T09:37:03.689Z,2.33
2022-12-29T09:39:31.105Z,1.95
2022-12-29T09:42:08.400Z,1.40
2022-12-29T09:44:35.587Z,1.40
2022-12-29T09:47:03.252Z,1.27
2022-12-29T09:50:07.800Z,1.98
2022-12-29T09:52:37.945Z,1.77
2022-12-29T09:55:24.220Z,1.40
2022-12-29T09:57:55.048Z,3.05
2022-12-29T10:00:40.901Z,2.85
2022-12-29T10:03:16.024Z,2.00
2022-12-29T10:05:49.957Z,3.38
2022-12-29T10:08:17.756Z,3.35
2022-12-29T10:10:48.309Z,2.25
2022-12-29T10:13:34.574Z,1.50
2022-12-29T10:16:12.948Z,2.28
2022-12-29T10:18:45.518Z,2.55
2022-12-29T10:21:32.341Z,2.78
2022-12-29T10:24:01.391Z,1.77
2022-12-29T10:26:30.184Z,2.33
2022-12-29T10:29:05.698Z,2.35
2022-12-29T10:31:39.435Z,2.55
2022-12-29T10:34:17.104Z,2.83
2022-12-29T10:36:48.405Z,2.75
2022-12-29T10:41:48.325Z,3.40
2022-12-29T10:44:21.680Z,3.13
2022-12-29T10:46:57.457Z,3.28
2022-12-29T10:49:28.341Z,2.80
2022-12-29T10:51:59.542Z,2.83
2022-12-29T10:54:53.880Z,2.80
2022-12-29T10:57:35.550Z,2.60
2022-12-29T11:00:31.788Z,2.60
2022-12-29T11:03:17.395Z,2.08
2022-12-29T11:06:03.633Z,2.45
2022-12-29T11:08:35.117Z,3.13
2022-12-29T11:11:07.041Z,3.58
2022-12-29T11:13:39.142Z,2.78
2022-12-29T11:16:08.178Z,3.35
2022-12-29T11:18:40.905Z,2.83
2022-12-29T11:21:24.983Z,3.35
2022-12-29T11:24:02.666Z,2.40
2022-12-29T11:26:35.359Z,3.17
2022-12-29T11:29:33.961Z,2.88
2022-12-29T11:32:11.687Z,2.70
2022-12-29T11:34:38.909Z,2.90
2022-12-29T11:37:11.950Z,2.72
2022-12-29T11:39:55.448Z,3.47
2022-12-29T11:42:30.211Z,2.65
2022-12-29T11:44:58.459Z,2.30
2022-12-29T11:47:30.700Z,3.92
2022-12-29T11:50:00.664Z,3.97
2022-12-29T11:52:29.764Z,2.70
2022-12-29T11:55:01.952Z,3.17
2022-12-29T11:57:29.483Z,2.03
2022-12-29T11:59:57.562Z,2.45
2022-12-29T12:02:26.031Z,2.20
2022-12-29T12:04:57.991Z,2.58
2022-12-29T12:07:32.445Z,2.15
2022-12-29T12:10:07.459Z,3.42
2022-12-29T12:12:42.891Z,3.03
2022-12-29T12:15:26.621Z,2.08
2022-12-29T12:18:12.553Z,3.65
2022-12-29T12:20:43.774Z,3.00
2022-12-29T12:23:14.982Z,3.15
2022-12-29T12:25:45.020Z,1.80
2022-12-29T12:28:42.429Z,2.85
2022-12-29T12:31:19.089Z,2.03
2022-12-29T12:34:14.957Z,2.30
2022-12-29T12:36:44.127Z,2.35
2022-12-29T12:39:14.289Z,3.33
2022-12-29T12:41:48.612Z,2.92
2022-12-29T12:44:39.785Z,2.97
2022-12-29T12:47:20.361Z,2.97
2022-12-29T12:49:50.270Z,2.30
2022-12-29T12:52:27.058Z,2.42
2022-12-29T12:54:55.537Z,2.72
2022-12-29T12:57:42.264Z,2.40
2022-12-29T13:00:24.833Z,2.28
2022-12-29T13:02:53.362Z,1.65
2022-12-29T13:05:41.903Z,2.03
2022-12-29T13:08:36.032Z,1.67
2022-12-29T13:11:21.961Z,1.08
2022-12-29T13:14:01.312Z,0.90
2022-12-29T13:16:28.654Z,0.90
2022-12-29T13:19:15.799Z,1.10
2022-12-29T13:22:03.849Z,1.33
2022-12-29T13:24:38.134Z,0.95
2022-12-29T13:27:15.771Z,1.40
2022-12-29T13:29:56.601Z,1.52
2022-12-29T13:32:45.554Z,1.20
2022-12-29T13:35:26.045Z,1.77
2022-12-29T13:37:55.633Z,2.88
2022-12-29T13:40:36.520Z,2.03
2022-12-29T13:43:04.887Z,1.50
2022-12-29T13:45:37.361Z,0.85
2022-12-29T13:48:18.808Z,1.63
2022-12-29T13:53:28.809Z,1.58
2022-12-29T13:56:00.428Z,1.48
2022-12-29T13:58:48.818Z,2.20
2022-12-29T14:01:15.993Z,1.80
2022-12-29T14:03:43.682Z,1.30
2022-12-29T14:06:13.802Z,1.40
2022-12-29T14:08:52.106Z,2.55
2022-12-29T14:11:22.220Z,2.38
2022-12-29T14:13:49.936Z,1.63
2022-12-29T14:16:32.047Z,1.90
2022-12-29T14:19:20.732Z,2.10
2022-12-29T14:21:57.422Z,0.90
2022-12-29T14:24:36.646Z,2.15
2022-12-29T14:27:03.977Z,1.35
2022-12-29T14:29:32.228Z,2.00
2022-12-29T14:32:01.339Z,2.17
2022-12-29T14:34:30.065Z,1.85
2022-12-29T14:36:59.417Z,1.70
2022-12-29T14:39:34.944Z,1.83
2022-12-29T14:42:13.392Z,1.75
2022-12-29T14:44:59.593Z,1.17
2022-12-29T14:47:34.754Z,1.50
2022-12-29T14:50:23.794Z,1.67
2022-12-29T14:52:54.011Z,0.95
2022-12-29T14:55:47.548Z,1.10
2022-12-29T14:58:20.754Z,1.20
2022-12-29T15:00:51.157Z,0.90
2022-12-29T15:03:33.329Z,1.50
2022-12-29T15:06:06.103Z,1.27
2022-12-29T15:08:41.114Z,1.75
2022-12-29T15:11:13.963Z,1.70
2022-12-29T15:13:43.373Z,0.90
2022-12-29T15:16:29.550Z,1.17
2022-12-29T15:18:56.730Z,0.88
2022-12-29T15:21:26.660Z,1.25
2022-12-29T15:23:55.207Z,1.25
2022-12-29T15:26:23.777Z,0.93
2022-12-29T15:28:53.292Z,1.35
2022-12-29T15:31:29.421Z,0.70
2022-12-29T15:34:04.051Z,0.80
2022-12-29T15:36:38.547Z,1.15
2022-12-29T15:39:19.834Z,1.17
2022-12-29T15:42:02.480Z,1.00
2022-12-29T15:44:40.302Z,1.30
2022-12-29T15:47:15.868Z,0.50
2022-12-29T15:49:46.709Z,1.85
2022-12-29T15:52:19.210Z,0.82
2022-12-29T15:54:46.628Z,1.10
2022-12-29T15:57:28.163Z,1.00
2022-12-29T16:02:29.612Z,1.27
2022-12-29T16:05:17.813Z,1.10
2022-12-29T16:07:56.214Z,0.88
2022-12-29T16:10:26.828Z,1.10
2022-12-29T16:12:56.413Z,1.35
2022-12-29T16:15:23.761Z,1.05
2022-12-29T16:17:54.209Z,1.08
2022-12-29T16:20:21.478Z,1.10
2022-12-29T16:22:51.062Z,0.80
2022-12-29T16:25:24.192Z,1.40
2022-12-29T16:27:52.023Z,1.08
2022-12-29T16:30:37.648Z,1.48
2022-12-29T16:33:06.408Z,1.95
2022-12-29T16:35:45.843Z,1.33
2022-12-29T16:38:15.563Z,1.02
2022-12-29T16:40:54.966Z,1.10
2022-12-29T16:43:26.011Z,1.67
2022-12-29T16:45:53.239Z,1.35
2022-12-29T16:48:22.052Z,1.75
2022-12-29T16:51:02.359Z,1.20
2022-12-29T16:53:41.441Z,1.75
2022-12-29T16:56:17.061Z,1.52
2022-12-29T16:58:49.197Z,1.60
2022-12-29T17:01:19.797Z,1.75
2022-12-29T17:03:49.545Z,1.75
2022-12-29T17:06:23.608Z,1.35
2022-12-29T17:08:52.517Z,1.75
2022-12-29T17:11:55.546Z,1.15
2022-12-29T17:14:37.839Z,1.45
2022-12-29T17:17:06.327Z,1.02
2022-12-29T17:19:46.520Z,1.50
2022-12-29T17:22:20.033Z,1.45
2022-12-29T17:24:50.519Z,1.88
2022-12-29T17:27:28.977Z,1.40
2022-12-29T17:30:00.416Z,2.13
2022-12-29T17:34:55.983Z,1.92
2022-12-29T17:37:26.230Z,1.90
2022-12-29T17:39:58.882Z,1.33
2022-12-29T17:42:26.357Z,1.60
2022-12-29T17:45:14.074Z,2.08
2022-12-29T17:47:44.807Z,2.80
2022-12-29T17:50:14.838Z,1.80
2022-12-29T17:52:42.706Z,1.77
2022-12-29T17:55:22.124Z,1.98
2022-12-29T17:57:50.389Z,1.67
2022-12-29T18:00:20.103Z,1.77
2022-12-29T18:02:48.051Z,2.58
2022-12-29T18:05:27.799Z,1.33
2022-12-29T18:07:57.552Z,1.42
2022-12-29T18:10:27.976Z,2.20
2022-12-29T18:12:56.616Z,2.00
2022-12-29T18:15:25.410Z,1.70
2022-12-29T18:18:10.991Z,2.50
2022-12-29T18:20:38.397Z,2.20
2022-12-29T18:23:06.918Z,2.75
2022-12-29T18:25:37.070Z,2.60
2022-12-29T18:28:04.690Z,1.88
2022-12-29T18:30:31.879Z,2.00
2022-12-29T18:32:59.047Z,2.28
2022-12-29T18:35:38.501Z,1.75
2022-12-29T18:38:07.038Z,2.35
2022-12-29T18:40:37.468Z,1.50
2022-12-29T18:43:06.869Z,1.50
2022-12-29T18:45:34.550Z,2.50
2022-12-29T18:48:09.700Z,2.28
2022-12-29T18:50:37.129Z,2.55
2022-12-29T18:53:04.439Z,2.80
2022-12-29T18:55:33.697Z,1.98
2022-12-29T18:58:00.835Z,2.38
2022-12-29T19:00:28.090Z,4.47
2022-12-29T19:02:55.582Z,3.70
2022-12-29T19:05:31.035Z,3.42
2022-12-29T19:07:58.481Z,2.10
2022-12-29T19:10:26.753Z,3.30
2022-12-29T19:12:54.557Z,2.75
2022-12-29T19:15:21.824Z,2.35
2022-12-29T19:18:16.041Z,2.58
2022-12-29T19:20:38.264Z,2.53
2022-12-29T19:23:12.938Z,2.88
2022-12-29T19:25:40.616Z,3.25
2022-12-29T19:28:13.804Z,2.20
2022-12-29T19:30:41.544Z,2.88
2022-12-29T19:33:10.527Z,2.67
2022-12-29T19:35:37.973Z,1.98
2022-12-29T19:38:05.598Z,2.60
2022-12-29T19:40:34.038Z,2.50
2022-12-29T19:43:03.750Z,2.85
2022-12-29T19:45:33.152Z,1.92
2022-12-29T19:48:00.442Z,3.15
2022-12-29T19:50:27.553Z,1.95
2022-12-29T19:53:04.633Z,2.50
2022-12-29T19:55:47.879Z,2.70
2022-12-29T19:58:17.712Z,2.38
2022-12-29T20:00:46.269Z,2.40
2022-12-29T20:03:13.557Z,2.35
2022-12-29T20:05:51.957Z,2.40
2022-12-29T20:08:20.199Z,2.22
2022-12-29T20:10:56.842Z,2.40
2022-12-29T20:13:24.998Z,2.35
2022-12-29T20:15:52.450Z,2.83
2022-12-29T20:18:26.835Z,1.88
2022-12-29T20:21:01.709Z,2.28
2022-12-29T20:23:28.874Z,2.60
2022-12-29T20:25:57.165Z,3.17
2022-12-29T20:28:33.500Z,2.00
2022-12-29T20:31:06.492Z,2.65
2022-12-29T20:33:36.549Z,2.42
2022-12-29T20:36:11.638Z,1.88
2022-12-29T20:38:39.021Z,2.33
2022-12-29T20:41:06.475Z,2.22
2022-12-29T20:43:34.107Z,2.25
2022-12-29T20:46:01.594Z,3.08
2022-12-29T20:48:31.957Z,2.17
2022-12-29T20:51:00.470Z,1.52
2022-12-29T20:53:28.666Z,1.83
2022-12-29T20:55:56.056Z,2.20
2022-12-29T20:58:25.719Z,1.70
2022-12-29T21:00:53.920Z,1.67
2022-12-29T21:03:22.675Z,1.45
2022-12-29T21:05:53.731Z,2.13
2022-12-29T21:08:21.336Z,1.95
2022-12-29T21:10:49.479Z,1.95
2022-12-29T21:13:17.256Z,1.70
2022-12-29T21:15:45.347Z,3.03
2022-12-29T21:18:13.672Z,1.77
2022-12-29T21:20:41.339Z,1.27
2022-12-29T21:23:08.555Z,1.58
2022-12-29T21:25:39.005Z,2.20
2022-12-29T21:28:08.354Z,2.37
2022-12-29T21:30:36.874Z,1.50
2022-12-29T21:33:04.146Z,1.90
2022-12-29T21:35:31.299Z,1.50
2022-12-29T21:38:06.376Z,2.33
2022-12-29T21:40:34.532Z,2.03
2022-12-29T21:43:02.798Z,2.75
2022-12-29T21:45:32.498Z,2.05
2022-12-29T21:48:23.768Z,2.20
2022-12-29T21:51:14.873Z,2.38
2022-12-29T21:53:43.924Z,2.38
2022-12-29T21:56:15.575Z,1.75
2022-12-29T21:59:02.923Z,1.95
2022-12-29T22:01:50.964Z,2.50
2022-12-29T22:04:40.131Z,1.75
2022-12-29T22:07:28.390Z,2.20
2022-12-29T22:10:14.775Z,3.38
2022-12-29T22:13:01.025Z,1.67
2022-12-29T22:15:33.563Z,2.13
2022-12-29T22:18:01.176Z,2.08
2022-12-29T22:20:30.247Z,2.00
2022-12-29T22:23:00.865Z,2.72
2022-12-29T22:25:28.003Z,2.33
2022-12-29T22:27:59.276Z,1.48
2022-12-29T22:30:27.396Z,1.50
2022-12-29T22:32:54.822Z,2.33
2022-12-29T22:35:24.815Z,2.47
2022-12-29T22:37:54.403Z,2.10
2022-12-29T22:40:21.788Z,2.25
2022-12-29T22:42:50.106Z,1.75
2022-12-29T22:45:18.693Z,1.45
2022-12-29T22:47:45.976Z,2.10
2022-12-29T22:50:14.312Z,1.90
2022-12-29T22:52:41.461Z,2.30
2022-12-29T22:55:14.810Z,2.30
2022-12-29T22:57:42.233Z,2.03
2022-12-29T23:00:11.600Z,1.65
2022-12-29T23:02:39.195Z,2.13
2022-12-29T23:05:07.041Z,1.65
2022-12-29T23:07:35.324Z,2.30
2022-12-29T23:10:03.421Z,1.55
2022-12-29T23:12:31.625Z,1.73
2022-12-29T23:14:59.958Z,1.38
2022-12-29T23:17:27.233Z,1.23
2022-12-29T23:19:54.511Z,1.55
2022-12-29T23:22:23.249Z,1.83
2022-12-29T23:24:50.523Z,1.52
2022-12-29T23:27:19.766Z,1.65
2022-12-29T23:29:47.077Z,1.52
2022-12-29T23:32:20.311Z,1.25
2022-12-29T23:34:47.704Z,0.95
2022-12-29T23:37:15.883Z,1.85
2022-12-29T23:39:44.165Z,1.67
2022-12-29T23:42:12.582Z,1.70
2022-12-29T23:44:41.998Z,1.35
2022-12-29T23:47:10.312Z,1.30
2022-12-29T23:49:37.976Z,2.03
2022-12-29T23:52:06.236Z,1.88
2022-12-29T23:54:33.419Z,1.70
2022-12-29T23:57:00.706Z,1.40
2022-12-29T23:59:27.850Z,1.60
